sensor_id;sensor_type;location;lat;lon;timestamp;P1;durP1;ratioP1;P2;durP2;ratioP2
27412;SDS011;14871;52.702;5.230;2022-12-18T00:01:44;85.20;;;37.30;;
27412;SDS011;14871;52.702;5.230;2022-12-18T00:04:15;90.03;;;38.35;;
27412;SDS011;14871;52.702;5.230;2022-12-18T00:06:46;82.60;;;37.80;;
27412;SDS011;14871;52.702;5.230;2022-12-18T00:09:11;83.82;;;35.70;;
27412;SDS011;14871;52.702;5.230;2022-12-18T00:11:37;82.32;;;37.92;;
27412;SDS011;14871;52.702;5.230;2022-12-18T00:14:02;78.10;;;31.30;;
27412;SDS011;14871;52.702;5.230;2022-12-18T00:16:28;94.10;;;39.83;;
27412;SDS011;14871;52.702;5.230;2022-12-18T00:19:00;89.53;;;37.38;;
27412;SDS011;14871;52.702;5.230;2022-12-18T00:21:26;84.30;;;38.00;;
27412;SDS011;14871;52.702;5.230;2022-12-18T00:23:55;91.75;;;39.40;;
27412;SDS011;14871;52.702;5.230;2022-12-18T00:26:39;79.43;;;35.53;;
27412;SDS011;14871;52.702;5.230;2022-12-18T00:29:06;89.93;;;41.45;;
27412;SDS011;14871;52.702;5.230;2022-12-18T00:31:35;79.65;;;35.88;;
27412;SDS011;14871;52.702;5.230;2022-12-18T00:34:02;84.57;;;35.88;;
27412;SDS011;14871;52.702;5.230;2022-12-18T00:36:29;80.05;;;35.25;;
27412;SDS011;14871;52.702;5.230;2022-12-18T00:38:57;92.38;;;38.78;;
27412;SDS011;14871;52.702;5.230;2022-12-18T00:41:25;85.82;;;37.70;;
27412;SDS011;14871;52.702;5.230;2022-12-18T00:44:11;82.18;;;34.63;;
27412;SDS011;14871;52.702;5.230;2022-12-18T00:46:38;80.70;;;36.40;;
27412;SDS011;14871;52.702;5.230;2022-12-18T00:49:05;72.53;;;34.13;;
27412;SDS011;14871;52.702;5.230;2022-12-18T00:51:31;79.78;;;37.70;;
27412;SDS011;14871;52.702;5.230;2022-12-18T00:53:56;81.55;;;37.20;;
27412;SDS011;14871;52.702;5.230;2022-12-18T00:56:22;81.65;;;35.78;;
27412;SDS011;14871;52.702;5.230;2022-12-18T00:58:48;76.75;;;33.10;;
27412;SDS011;14871;52.702;5.230;2022-12-18T01:01:14;82.90;;;37.42;;
27412;SDS011;14871;52.702;5.230;2022-12-18T01:03:40;81.40;;;37.65;;
27412;SDS011;14871;52.702;5.230;2022-12-18T01:06:09;77.63;;;37.95;;
27412;SDS011;14871;52.702;5.230;2022-12-18T01:08:36;68.45;;;31.52;;
27412;SDS011;14871;52.702;5.230;2022-12-18T01:11:10;79.40;;;32.30;;
27412;SDS011;14871;52.702;5.230;2022-12-18T01:13:36;77.90;;;36.50;;
27412;SDS011;14871;52.702;5.230;2022-12-18T01:16:02;82.68;;;38.50;;
27412;SDS011;14871;52.702;5.230;2022-12-18T01:18:28;80.32;;;37.90;;
27412;SDS011;14871;52.702;5.230;2022-12-18T01:20:54;81.82;;;33.90;;
27412;SDS011;14871;52.702;5.230;2022-12-18T01:23:19;83.70;;;35.80;;
27412;SDS011;14871;52.702;5.230;2022-12-18T01:25:45;77.22;;;37.92;;
27412;SDS011;14871;52.702;5.230;2022-12-18T01:28:10;80.95;;;36.63;;
27412;SDS011;14871;52.702;5.230;2022-12-18T01:30:36;82.35;;;35.97;;
27412;SDS011;14871;52.702;5.230;2022-12-18T01:33:03;88.50;;;37.67;;
27412;SDS011;14871;52.702;5.230;2022-12-18T01:35:29;83.07;;;36.22;;
27412;SDS011;14871;52.702;5.230;2022-12-18T01:37:55;80.45;;;35.88;;
27412;SDS011;14871;52.702;5.230;2022-12-18T01:40:21;75.20;;;35.10;;
27412;SDS011;14871;52.702;5.230;2022-12-18T01:42:53;81.35;;;35.20;;
27412;SDS011;14871;52.702;5.230;2022-12-18T01:45:23;74.50;;;32.95;;
27412;SDS011;14871;52.702;5.230;2022-12-18T01:47:56;76.65;;;36.17;;
27412;SDS011;14871;52.702;5.230;2022-12-18T01:50:34;81.68;;;37.95;;
27412;SDS011;14871;52.702;5.230;2022-12-18T01:53:07;79.28;;;36.20;;
27412;SDS011;14871;52.702;5.230;2022-12-18T01:55:45;82.95;;;37.50;;
27412;SDS011;14871;52.702;5.230;2022-12-18T01:58:13;78.80;;;36.10;;
27412;SDS011;14871;52.702;5.230;2022-12-18T02:00:39;82.97;;;36.83;;
27412;SDS011;14871;52.702;5.230;2022-12-18T02:03:05;69.15;;;32.72;;
27412;SDS011;14871;52.702;5.230;2022-12-18T02:10:33;76.75;;;35.55;;
27412;SDS011;14871;52.702;5.230;2022-12-18T02:15:51;78.25;;;35.35;;
27412;SDS011;14871;52.702;5.230;2022-12-18T02:18:27;79.18;;;36.53;;
27412;SDS011;14871;52.702;5.230;2022-12-18T02:26:30;74.80;;;34.72;;
27412;SDS011;14871;52.702;5.230;2022-12-18T02:29:10;71.55;;;34.95;;
27412;SDS011;14871;52.702;5.230;2022-12-18T02:31:42;73.82;;;36.58;;
27412;SDS011;14871;52.702;5.230;2022-12-18T02:34:12;80.57;;;37.28;;
27412;SDS011;14871;52.702;5.230;2022-12-18T02:36:38;80.45;;;37.03;;
27412;SDS011;14871;52.702;5.230;2022-12-18T02:39:07;74.47;;;36.78;;
27412;SDS011;14871;52.702;5.230;2022-12-18T02:41:35;78.35;;;37.00;;
27412;SDS011;14871;52.702;5.230;2022-12-18T02:44:02;81.55;;;37.25;;
27412;SDS011;14871;52.702;5.230;2022-12-18T02:46:37;81.97;;;37.58;;
27412;SDS011;14871;52.702;5.230;2022-12-18T02:49:14;78.53;;;37.00;;
27412;SDS011;14871;52.702;5.230;2022-12-18T02:52:17;76.27;;;36.27;;
27412;SDS011;14871;52.702;5.230;2022-12-18T02:58:03;74.38;;;35.58;;
27412;SDS011;14871;52.702;5.230;2022-12-18T03:00:37;75.83;;;36.77;;
27412;SDS011;14871;52.702;5.230;2022-12-18T03:05:48;73.93;;;34.80;;
27412;SDS011;14871;52.702;5.230;2022-12-18T03:08:22;81.40;;;37.38;;
27412;SDS011;14871;52.702;5.230;2022-12-18T03:10:56;84.70;;;35.83;;
27412;SDS011;14871;52.702;5.230;2022-12-18T03:13:28;87.47;;;37.50;;
27412;SDS011;14871;52.702;5.230;2022-12-18T03:16:01;93.85;;;34.95;;
27412;SDS011;14871;52.702;5.230;2022-12-18T03:18:33;72.75;;;33.80;;
27412;SDS011;14871;52.702;5.230;2022-12-18T03:21:07;73.13;;;33.63;;
27412;SDS011;14871;52.702;5.230;2022-12-18T03:23:36;70.38;;;33.97;;
27412;SDS011;14871;52.702;5.230;2022-12-18T03:26:09;88.75;;;35.55;;
27412;SDS011;14871;52.702;5.230;2022-12-18T03:28:38;80.18;;;35.40;;
27412;SDS011;14871;52.702;5.230;2022-12-18T03:31:09;81.60;;;35.38;;
27412;SDS011;14871;52.702;5.230;2022-12-18T03:33:38;81.10;;;34.67;;
27412;SDS011;14871;52.702;5.230;2022-12-18T03:36:11;70.45;;;32.50;;
27412;SDS011;14871;52.702;5.230;2022-12-18T03:38:36;82.85;;;36.05;;
27412;SDS011;14871;52.702;5.230;2022-12-18T03:41:04;73.88;;;35.75;;
27412;SDS011;14871;52.702;5.230;2022-12-18T03:43:51;87.13;;;33.75;;
27412;SDS011;14871;52.702;5.230;2022-12-18T03:46:27;78.50;;;32.65;;
27412;SDS011;14871;52.702;5.230;2022-12-18T03:48:59;75.45;;;33.58;;
27412;SDS011;14871;52.702;5.230;2022-12-18T03:51:49;79.50;;;34.92;;
27412;SDS011;14871;52.702;5.230;2022-12-18T03:54:20;69.43;;;33.22;;
27412;SDS011;14871;52.702;5.230;2022-12-18T03:56:48;78.70;;;34.00;;
27412;SDS011;14871;52.702;5.230;2022-12-18T03:59:19;71.00;;;32.05;;
27412;SDS011;14871;52.702;5.230;2022-12-18T04:01:47;73.68;;;31.10;;
27412;SDS011;14871;52.702;5.230;2022-12-18T04:04:16;73.97;;;34.33;;
27412;SDS011;14871;52.702;5.230;2022-12-18T04:06:43;76.38;;;32.15;;
27412;SDS011;14871;52.702;5.230;2022-12-18T04:09:11;71.75;;;35.05;;
27412;SDS011;14871;52.702;5.230;2022-12-18T04:11:37;76.10;;;33.72;;
27412;SDS011;14871;52.702;5.230;2022-12-18T04:14:04;80.07;;;36.15;;
27412;SDS011;14871;52.702;5.230;2022-12-18T04:16:30;79.50;;;36.30;;
27412;SDS011;14871;52.702;5.230;2022-12-18T04:18:55;80.10;;;37.13;;
27412;SDS011;14871;52.702;5.230;2022-12-18T04:21:21;75.30;;;37.53;;
27412;SDS011;14871;52.702;5.230;2022-12-18T04:23:47;80.72;;;37.13;;
27412;SDS011;14871;52.702;5.230;2022-12-18T04:26:13;78.53;;;37.08;;
27412;SDS011;14871;52.702;5.230;2022-12-18T04:28:38;74.97;;;36.40;;
27412;SDS011;14871;52.702;5.230;2022-12-18T04:31:04;79.78;;;37.72;;
27412;SDS011;14871;52.702;5.230;2022-12-18T04:33:30;72.25;;;35.08;;
27412;SDS011;14871;52.702;5.230;2022-12-18T04:35:55;75.80;;;37.40;;
27412;SDS011;14871;52.702;5.230;2022-12-18T04:38:21;75.20;;;37.33;;
27412;SDS011;14871;52.702;5.230;2022-12-18T04:40:46;69.22;;;36.47;;
27412;SDS011;14871;52.702;5.230;2022-12-18T04:43:12;71.10;;;35.15;;
27412;SDS011;14871;52.702;5.230;2022-12-18T04:45:38;73.00;;;36.85;;
27412;SDS011;14871;52.702;5.230;2022-12-18T04:48:03;76.13;;;36.30;;
27412;SDS011;14871;52.702;5.230;2022-12-18T04:50:29;72.72;;;36.20;;
27412;SDS011;14871;52.702;5.230;2022-12-18T04:52:55;76.25;;;36.95;;
27412;SDS011;14871;52.702;5.230;2022-12-18T04:55:21;76.93;;;37.85;;
27412;SDS011;14871;52.702;5.230;2022-12-18T04:57:50;77.32;;;37.45;;
27412;SDS011;14871;52.702;5.230;2022-12-18T05:00:15;70.18;;;36.55;;
27412;SDS011;14871;52.702;5.230;2022-12-18T05:02:41;84.00;;;37.83;;
27412;SDS011;14871;52.702;5.230;2022-12-18T05:05:07;73.15;;;35.72;;
27412;SDS011;14871;52.702;5.230;2022-12-18T05:07:33;66.50;;;34.63;;
27412;SDS011;14871;52.702;5.230;2022-12-18T05:09:58;78.00;;;37.08;;
27412;SDS011;14871;52.702;5.230;2022-12-18T05:12:24;76.75;;;36.55;;
27412;SDS011;14871;52.702;5.230;2022-12-18T05:14:50;71.80;;;35.13;;
27412;SDS011;14871;52.702;5.230;2022-12-18T05:17:16;74.28;;;36.58;;
27412;SDS011;14871;52.702;5.230;2022-12-18T05:19:42;74.13;;;35.70;;
27412;SDS011;14871;52.702;5.230;2022-12-18T05:22:08;76.78;;;35.97;;
27412;SDS011;14871;52.702;5.230;2022-12-18T05:24:34;69.28;;;35.30;;
27412;SDS011;14871;52.702;5.230;2022-12-18T05:26:59;68.88;;;36.30;;
27412;SDS011;14871;52.702;5.230;2022-12-18T05:29:25;68.32;;;34.75;;
27412;SDS011;14871;52.702;5.230;2022-12-18T05:31:50;71.95;;;35.53;;
27412;SDS011;14871;52.702;5.230;2022-12-18T05:34:16;68.25;;;33.30;;
27412;SDS011;14871;52.702;5.230;2022-12-18T05:36:42;66.75;;;33.08;;
27412;SDS011;14871;52.702;5.230;2022-12-18T05:39:07;68.68;;;34.42;;
27412;SDS011;14871;52.702;5.230;2022-12-18T05:41:33;65.03;;;34.13;;
27412;SDS011;14871;52.702;5.230;2022-12-18T05:43:59;64.30;;;32.75;;
27412;SDS011;14871;52.702;5.230;2022-12-18T05:46:25;65.32;;;32.83;;
27412;SDS011;14871;52.702;5.230;2022-12-18T05:48:51;68.15;;;32.67;;
27412;SDS011;14871;52.702;5.230;2022-12-18T05:51:17;64.30;;;31.92;;
27412;SDS011;14871;52.702;5.230;2022-12-18T05:53:45;62.92;;;31.80;;
27412;SDS011;14871;52.702;5.230;2022-12-18T05:56:12;62.55;;;30.52;;
27412;SDS011;14871;52.702;5.230;2022-12-18T05:58:39;60.97;;;30.13;;
27412;SDS011;14871;52.702;5.230;2022-12-18T06:01:11;60.20;;;31.08;;
27412;SDS011;14871;52.702;5.230;2022-12-18T06:03:39;59.60;;;29.70;;
27412;SDS011;14871;52.702;5.230;2022-12-18T06:06:18;56.80;;;30.52;;
27412;SDS011;14871;52.702;5.230;2022-12-18T06:08:46;60.00;;;29.23;;
27412;SDS011;14871;52.702;5.230;2022-12-18T06:11:11;54.45;;;28.98;;
27412;SDS011;14871;52.702;5.230;2022-12-18T06:13:38;64.80;;;30.75;;
27412;SDS011;14871;52.702;5.230;2022-12-18T06:16:04;59.08;;;29.77;;
27412;SDS011;14871;52.702;5.230;2022-12-18T06:18:30;63.40;;;29.70;;
27412;SDS011;14871;52.702;5.230;2022-12-18T06:20:56;51.38;;;28.10;;
27412;SDS011;14871;52.702;5.230;2022-12-18T06:23:23;58.08;;;30.63;;
27412;SDS011;14871;52.702;5.230;2022-12-18T06:25:49;58.03;;;29.20;;
27412;SDS011;14871;52.702;5.230;2022-12-18T06:28:15;54.15;;;27.73;;
27412;SDS011;14871;52.702;5.230;2022-12-18T06:30:44;51.20;;;27.45;;
27412;SDS011;14871;52.702;5.230;2022-12-18T06:33:11;54.15;;;28.35;;
27412;SDS011;14871;52.702;5.230;2022-12-18T06:35:37;53.08;;;26.63;;
27412;SDS011;14871;52.702;5.230;2022-12-18T06:38:02;48.75;;;26.38;;
27412;SDS011;14871;52.702;5.230;2022-12-18T06:40:28;48.88;;;25.15;;
27412;SDS011;14871;52.702;5.230;2022-12-18T06:42:54;45.78;;;25.38;;
27412;SDS011;14871;52.702;5.230;2022-12-18T06:45:20;46.28;;;26.15;;
27412;SDS011;14871;52.702;5.230;2022-12-18T06:47:45;44.05;;;24.23;;
27412;SDS011;14871;52.702;5.230;2022-12-18T06:50:11;45.65;;;24.95;;
27412;SDS011;14871;52.702;5.230;2022-12-18T06:52:37;45.58;;;24.67;;
27412;SDS011;14871;52.702;5.230;2022-12-18T06:55:04;42.15;;;24.10;;
27412;SDS011;14871;52.702;5.230;2022-12-18T06:57:33;45.88;;;23.05;;
27412;SDS011;14871;52.702;5.230;2022-12-18T06:59:59;41.38;;;23.02;;
27412;SDS011;14871;52.702;5.230;2022-12-18T07:02:25;41.00;;;22.80;;
27412;SDS011;14871;52.702;5.230;2022-12-18T07:04:50;38.47;;;22.88;;
27412;SDS011;14871;52.702;5.230;2022-12-18T07:07:16;42.85;;;22.75;;
27412;SDS011;14871;52.702;5.230;2022-12-18T07:09:42;39.25;;;21.85;;
27412;SDS011;14871;52.702;5.230;2022-12-18T07:12:07;39.95;;;21.52;;
27412;SDS011;14871;52.702;5.230;2022-12-18T07:14:33;38.90;;;20.73;;
27412;SDS011;14871;52.702;5.230;2022-12-18T07:16:59;40.22;;;21.52;;
27412;SDS011;14871;52.702;5.230;2022-12-18T07:19:24;38.35;;;20.60;;
27412;SDS011;14871;52.702;5.230;2022-12-18T07:21:50;33.63;;;19.80;;
27412;SDS011;14871;52.702;5.230;2022-12-18T07:24:16;38.92;;;21.13;;
27412;SDS011;14871;52.702;5.230;2022-12-18T07:26:42;39.03;;;21.08;;
27412;SDS011;14871;52.702;5.230;2022-12-18T07:29:10;32.67;;;19.45;;
27412;SDS011;14871;52.702;5.230;2022-12-18T07:31:35;32.50;;;18.42;;
27412;SDS011;14871;52.702;5.230;2022-12-18T07:34:01;34.17;;;19.70;;
27412;SDS011;14871;52.702;5.230;2022-12-18T07:36:26;35.15;;;19.23;;
27412;SDS011;14871;52.702;5.230;2022-12-18T07:38:52;30.63;;;18.33;;
27412;SDS011;14871;52.702;5.230;2022-12-18T07:41:18;30.10;;;18.55;;
27412;SDS011;14871;52.702;5.230;2022-12-18T07:43:44;36.20;;;19.83;;
27412;SDS011;14871;52.702;5.230;2022-12-18T07:46:10;37.58;;;19.38;;
27412;SDS011;14871;52.702;5.230;2022-12-18T07:48:38;31.40;;;16.85;;
27412;SDS011;14871;52.702;5.230;2022-12-18T07:51:05;32.00;;;19.02;;
27412;SDS011;14871;52.702;5.230;2022-12-18T07:53:32;28.85;;;18.02;;
27412;SDS011;14871;52.702;5.230;2022-12-18T07:56:03;28.92;;;17.63;;
27412;SDS011;14871;52.702;5.230;2022-12-18T07:58:30;31.95;;;17.50;;
27412;SDS011;14871;52.702;5.230;2022-12-18T08:01:05;29.00;;;17.95;;
27412;SDS011;14871;52.702;5.230;2022-12-18T08:03:33;28.20;;;17.30;;
27412;SDS011;14871;52.702;5.230;2022-12-18T08:06:02;25.67;;;16.63;;
27412;SDS011;14871;52.702;5.230;2022-12-18T08:08:30;25.88;;;16.05;;
27412;SDS011;14871;52.702;5.230;2022-12-18T08:10:56;28.52;;;17.35;;
27412;SDS011;14871;52.702;5.230;2022-12-18T08:13:22;31.17;;;18.80;;
27412;SDS011;14871;52.702;5.230;2022-12-18T08:15:55;29.38;;;18.50;;
27412;SDS011;14871;52.702;5.230;2022-12-18T08:18:28;29.83;;;19.02;;
27412;SDS011;14871;52.702;5.230;2022-12-18T08:20:55;27.60;;;17.90;;
27412;SDS011;14871;52.702;5.230;2022-12-18T08:23:20;32.13;;;18.30;;
27412;SDS011;14871;52.702;5.230;2022-12-18T08:25:46;32.55;;;20.63;;
27412;SDS011;14871;52.702;5.230;2022-12-18T08:28:12;30.58;;;18.08;;
27412;SDS011;14871;52.702;5.230;2022-12-18T08:30:37;30.17;;;19.65;;
27412;SDS011;14871;52.702;5.230;2022-12-18T08:33:03;28.38;;;17.35;;
27412;SDS011;14871;52.702;5.230;2022-12-18T08:35:29;28.27;;;17.58;;
27412;SDS011;14871;52.702;5.230;2022-12-18T08:37:55;29.17;;;18.63;;
27412;SDS011;14871;52.702;5.230;2022-12-18T08:40:21;27.05;;;17.50;;
27412;SDS011;14871;52.702;5.230;2022-12-18T08:42:47;29.58;;;18.05;;
27412;SDS011;14871;52.702;5.230;2022-12-18T08:45:31;31.07;;;19.70;;
27412;SDS011;14871;52.702;5.230;2022-12-18T08:47:56;26.55;;;17.05;;
27412;SDS011;14871;52.702;5.230;2022-12-18T08:50:22;28.30;;;17.50;;
27412;SDS011;14871;52.702;5.230;2022-12-18T08:52:47;30.77;;;18.40;;
27412;SDS011;14871;52.702;5.230;2022-12-18T08:55:13;31.73;;;18.88;;
27412;SDS011;14871;52.702;5.230;2022-12-18T08:57:38;29.63;;;18.58;;
27412;SDS011;14871;52.702;5.230;2022-12-18T09:00:04;29.42;;;18.63;;
27412;SDS011;14871;52.702;5.230;2022-12-18T09:02:30;28.08;;;17.33;;
27412;SDS011;14871;52.702;5.230;2022-12-18T09:04:56;27.63;;;17.77;;
27412;SDS011;14871;52.702;5.230;2022-12-18T09:07:21;30.50;;;18.10;;
27412;SDS011;14871;52.702;5.230;2022-12-18T09:09:47;29.70;;;18.00;;
27412;SDS011;14871;52.702;5.230;2022-12-18T09:12:12;29.02;;;19.25;;
27412;SDS011;14871;52.702;5.230;2022-12-18T09:14:38;28.23;;;17.17;;
27412;SDS011;14871;52.702;5.230;2022-12-18T09:17:03;33.63;;;19.27;;
27412;SDS011;14871;52.702;5.230;2022-12-18T09:19:29;26.60;;;16.77;;
27412;SDS011;14871;52.702;5.230;2022-12-18T09:21:55;30.55;;;17.13;;
27412;SDS011;14871;52.702;5.230;2022-12-18T09:24:23;25.08;;;15.60;;
27412;SDS011;14871;52.702;5.230;2022-12-18T09:26:52;27.75;;;17.10;;
27412;SDS011;14871;52.702;5.230;2022-12-18T09:29:18;27.80;;;16.65;;
27412;SDS011;14871;52.702;5.230;2022-12-18T09:31:44;26.98;;;17.85;;
27412;SDS011;14871;52.702;5.230;2022-12-18T09:34:09;23.05;;;15.55;;
27412;SDS011;14871;52.702;5.230;2022-12-18T09:36:35;23.58;;;15.85;;
27412;SDS011;14871;52.702;5.230;2022-12-18T09:39:01;29.83;;;17.65;;
27412;SDS011;14871;52.702;5.230;2022-12-18T09:44:17;25.77;;;16.42;;
27412;SDS011;14871;52.702;5.230;2022-12-18T09:49:45;22.63;;;14.95;;
27412;SDS011;14871;52.702;5.230;2022-12-18T09:52:17;25.63;;;16.67;;
27412;SDS011;14871;52.702;5.230;2022-12-18T09:57:39;22.52;;;14.13;;
27412;SDS011;14871;52.702;5.230;2022-12-18T10:00:16;26.48;;;16.23;;
27412;SDS011;14871;52.702;5.230;2022-12-18T10:02:45;22.60;;;15.88;;
27412;SDS011;14871;52.702;5.230;2022-12-18T10:05:12;27.02;;;15.95;;
27412;SDS011;14871;52.702;5.230;2022-12-18T10:07:43;24.83;;;16.00;;
27412;SDS011;14871;52.702;5.230;2022-12-18T10:21:24;25.67;;;15.02;;
27412;SDS011;14871;52.702;5.230;2022-12-18T10:26:40;24.17;;;14.97;;
27412;SDS011;14871;52.702;5.230;2022-12-18T10:29:13;24.75;;;14.57;;
27412;SDS011;14871;52.702;5.230;2022-12-18T10:31:39;21.30;;;13.25;;
27412;SDS011;14871;52.702;5.230;2022-12-18T10:34:09;23.75;;;14.98;;
27412;SDS011;14871;52.702;5.230;2022-12-18T10:36:35;22.23;;;13.77;;
27412;SDS011;14871;52.702;5.230;2022-12-18T10:39:20;24.02;;;14.48;;
27412;SDS011;14871;52.702;5.230;2022-12-18T10:41:48;23.13;;;15.25;;
27412;SDS011;14871;52.702;5.230;2022-12-18T10:44:21;21.20;;;14.35;;
27412;SDS011;14871;52.702;5.230;2022-12-18T10:46:54;22.48;;;14.25;;
27412;SDS011;14871;52.702;5.230;2022-12-18T10:49:31;22.65;;;13.82;;
27412;SDS011;14871;52.702;5.230;2022-12-18T10:52:12;21.15;;;14.00;;
27412;SDS011;14871;52.702;5.230;2022-12-18T10:59:58;20.50;;;14.18;;
27412;SDS011;14871;52.702;5.230;2022-12-18T11:02:38;23.65;;;14.77;;
27412;SDS011;14871;52.702;5.230;2022-12-18T11:05:22;28.42;;;17.15;;
27412;SDS011;14871;52.702;5.230;2022-12-18T11:07:53;25.73;;;17.55;;
27412;SDS011;14871;52.702;5.230;2022-12-18T11:10:20;25.20;;;18.88;;
27412;SDS011;14871;52.702;5.230;2022-12-18T11:12:48;21.73;;;15.40;;
27412;SDS011;14871;52.702;5.230;2022-12-18T11:15:21;25.27;;;17.70;;
27412;SDS011;14871;52.702;5.230;2022-12-18T11:17:52;21.15;;;15.00;;
27412;SDS011;14871;52.702;5.230;2022-12-18T11:20:31;20.70;;;14.25;;
27412;SDS011;14871;52.702;5.230;2022-12-18T11:23:00;24.15;;;15.20;;
27412;SDS011;14871;52.702;5.230;2022-12-18T11:25:28;24.88;;;14.73;;
27412;SDS011;14871;52.702;5.230;2022-12-18T11:27:56;24.88;;;16.15;;
27412;SDS011;14871;52.702;5.230;2022-12-18T11:30:26;22.77;;;15.18;;
27412;SDS011;14871;52.702;5.230;2022-12-18T11:33:03;22.85;;;14.23;;
27412;SDS011;14871;52.702;5.230;2022-12-18T11:38:12;22.10;;;15.15;;
27412;SDS011;14871;52.702;5.230;2022-12-18T11:40:45;19.60;;;13.15;;
27412;SDS011;14871;52.702;5.230;2022-12-18T11:43:29;22.40;;;14.38;;
27412;SDS011;14871;52.702;5.230;2022-12-18T11:46:02;21.65;;;13.32;;
27412;SDS011;14871;52.702;5.230;2022-12-18T11:48:44;21.70;;;14.32;;
27412;SDS011;14871;52.702;5.230;2022-12-18T11:51:16;21.58;;;13.98;;
27412;SDS011;14871;52.702;5.230;2022-12-18T11:53:51;22.50;;;15.18;;
27412;SDS011;14871;52.702;5.230;2022-12-18T12:01:36;23.35;;;13.75;;
27412;SDS011;14871;52.702;5.230;2022-12-18T12:22:35;22.02;;;14.05;;
27412;SDS011;14871;52.702;5.230;2022-12-18T12:28:08;21.27;;;13.52;;
27412;SDS011;14871;52.702;5.230;2022-12-18T12:38:21;23.00;;;14.82;;
27412;SDS011;14871;52.702;5.230;2022-12-18T12:40:57;22.17;;;14.05;;
27412;SDS011;14871;52.702;5.230;2022-12-18T12:43:43;23.45;;;14.35;;
27412;SDS011;14871;52.702;5.230;2022-12-18T12:46:13;22.08;;;14.32;;
27412;SDS011;14871;52.702;5.230;2022-12-18T12:48:49;24.35;;;14.60;;
27412;SDS011;14871;52.702;5.230;2022-12-18T12:54:03;19.73;;;13.43;;
27412;SDS011;14871;52.702;5.230;2022-12-18T12:59:40;24.25;;;14.18;;
27412;SDS011;14871;52.702;5.230;2022-12-18T13:05:14;21.80;;;13.32;;
27412;SDS011;14871;52.702;5.230;2022-12-18T13:07:50;22.67;;;13.88;;
27412;SDS011;14871;52.702;5.230;2022-12-18T13:10:24;22.70;;;14.25;;
27412;SDS011;14871;52.702;5.230;2022-12-18T13:12:52;22.30;;;13.63;;
27412;SDS011;14871;52.702;5.230;2022-12-18T13:15:22;25.58;;;13.75;;
27412;SDS011;14871;52.702;5.230;2022-12-18T13:18:04;22.77;;;14.82;;
27412;SDS011;14871;52.702;5.230;2022-12-18T13:20:37;24.33;;;14.63;;
27412;SDS011;14871;52.702;5.230;2022-12-18T13:30:59;21.50;;;13.73;;
27412;SDS011;14871;52.702;5.230;2022-12-18T13:38:44;22.98;;;14.18;;
27412;SDS011;14871;52.702;5.230;2022-12-18T13:41:24;21.92;;;14.00;;
27412;SDS011;14871;52.702;5.230;2022-12-18T13:43:52;21.70;;;14.02;;
27412;SDS011;14871;52.702;5.230;2022-12-18T13:46:47;20.98;;;13.73;;
27412;SDS011;14871;52.702;5.230;2022-12-18T13:49:21;23.58;;;14.77;;
27412;SDS011;14871;52.702;5.230;2022-12-18T13:52:17;22.92;;;13.88;;
27412;SDS011;14871;52.702;5.230;2022-12-18T13:54:50;20.48;;;13.15;;
27412;SDS011;14871;52.702;5.230;2022-12-18T14:00:28;22.85;;;14.60;;
27412;SDS011;14871;52.702;5.230;2022-12-18T14:02:55;21.27;;;13.82;;
27412;SDS011;14871;52.702;5.230;2022-12-18T14:05:26;23.38;;;14.32;;
27412;SDS011;14871;52.702;5.230;2022-12-18T14:08:08;20.73;;;13.77;;
27412;SDS011;14871;52.702;5.230;2022-12-18T14:10:42;20.10;;;14.15;;
27412;SDS011;14871;52.702;5.230;2022-12-18T14:13:10;19.50;;;12.88;;
27412;SDS011;14871;52.702;5.230;2022-12-18T14:15:43;20.30;;;13.65;;
27412;SDS011;14871;52.702;5.230;2022-12-18T14:20:51;21.20;;;14.18;;
27412;SDS011;14871;52.702;5.230;2022-12-18T14:25:55;20.98;;;13.10;;
27412;SDS011;14871;52.702;5.230;2022-12-18T14:28:21;23.38;;;14.98;;
27412;SDS011;14871;52.702;5.230;2022-12-18T14:30:47;22.77;;;14.23;;
27412;SDS011;14871;52.702;5.230;2022-12-18T14:35:40;23.05;;;13.98;;
27412;SDS011;14871;52.702;5.230;2022-12-18T14:38:30;22.17;;;13.35;;
27412;SDS011;14871;52.702;5.230;2022-12-18T14:40:58;22.63;;;14.80;;
27412;SDS011;14871;52.702;5.230;2022-12-18T14:43:36;18.45;;;12.98;;
27412;SDS011;14871;52.702;5.230;2022-12-18T14:46:03;19.55;;;11.07;;
27412;SDS011;14871;52.702;5.230;2022-12-18T14:48:35;21.70;;;13.10;;
27412;SDS011;14871;52.702;5.230;2022-12-18T14:51:06;21.48;;;14.18;;
27412;SDS011;14871;52.702;5.230;2022-12-18T14:53:43;21.83;;;13.25;;
27412;SDS011;14871;52.702;5.230;2022-12-18T14:56:18;21.75;;;14.43;;
27412;SDS011;14871;52.702;5.230;2022-12-18T14:58:47;26.85;;;15.00;;
27412;SDS011;14871;52.702;5.230;2022-12-18T15:01:18;22.10;;;14.40;;
27412;SDS011;14871;52.702;5.230;2022-12-18T15:03:45;22.80;;;14.98;;
27412;SDS011;14871;52.702;5.230;2022-12-18T15:09:06;23.20;;;14.38;;
27412;SDS011;14871;52.702;5.230;2022-12-18T15:11:49;19.58;;;13.15;;
27412;SDS011;14871;52.702;5.230;2022-12-18T15:14:40;20.52;;;13.15;;
27412;SDS011;14871;52.702;5.230;2022-12-18T15:17:14;20.60;;;13.90;;
27412;SDS011;14871;52.702;5.230;2022-12-18T15:19:48;22.42;;;13.88;;
27412;SDS011;14871;52.702;5.230;2022-12-18T15:22:26;20.58;;;13.25;;
27412;SDS011;14871;52.702;5.230;2022-12-18T15:24:55;20.30;;;12.77;;
27412;SDS011;14871;52.702;5.230;2022-12-18T15:27:44;22.25;;;13.07;;
27412;SDS011;14871;52.702;5.230;2022-12-18T15:32:42;21.92;;;14.95;;
27412;SDS011;14871;52.702;5.230;2022-12-18T15:37:42;21.95;;;13.55;;
27412;SDS011;14871;52.702;5.230;2022-12-18T15:40:14;22.45;;;13.55;;
27412;SDS011;14871;52.702;5.230;2022-12-18T15:42:40;23.15;;;15.10;;
27412;SDS011;14871;52.702;5.230;2022-12-18T15:47:51;19.73;;;13.60;;
27412;SDS011;14871;52.702;5.230;2022-12-18T15:50:17;24.13;;;14.07;;
27412;SDS011;14871;52.702;5.230;2022-12-18T15:52:44;24.40;;;14.68;;
27412;SDS011;14871;52.702;5.230;2022-12-18T15:55:16;20.75;;;13.07;;
27412;SDS011;14871;52.702;5.230;2022-12-18T15:58:05;22.52;;;14.70;;
27412;SDS011;14871;52.702;5.230;2022-12-18T16:00:31;25.40;;;15.50;;
27412;SDS011;14871;52.702;5.230;2022-12-18T16:02:59;25.95;;;15.30;;
27412;SDS011;14871;52.702;5.230;2022-12-18T16:05:24;24.90;;;14.77;;
27412;SDS011;14871;52.702;5.230;2022-12-18T16:07:51;21.55;;;14.55;;
27412;SDS011;14871;52.702;5.230;2022-12-18T16:10:17;22.33;;;14.48;;
27412;SDS011;14871;52.702;5.230;2022-12-18T16:12:43;21.00;;;14.77;;
27412;SDS011;14871;52.702;5.230;2022-12-18T16:15:10;24.33;;;15.30;;
27412;SDS011;14871;52.702;5.230;2022-12-18T16:17:38;25.42;;;15.27;;
27412;SDS011;14871;52.702;5.230;2022-12-18T16:20:05;21.85;;;14.13;;
27412;SDS011;14871;52.702;5.230;2022-12-18T16:22:36;21.55;;;14.50;;
27412;SDS011;14871;52.702;5.230;2022-12-18T16:25:02;24.58;;;14.18;;
27412;SDS011;14871;52.702;5.230;2022-12-18T16:27:30;25.02;;;15.18;;
27412;SDS011;14871;52.702;5.230;2022-12-18T16:29:55;27.48;;;15.77;;
27412;SDS011;14871;52.702;5.230;2022-12-18T16:32:21;22.40;;;15.10;;
27412;SDS011;14871;52.702;5.230;2022-12-18T16:34:47;24.13;;;15.98;;
27412;SDS011;14871;52.702;5.230;2022-12-18T16:37:14;23.20;;;14.77;;
27412;SDS011;14871;52.702;5.230;2022-12-18T16:39:40;25.35;;;16.30;;
27412;SDS011;14871;52.702;5.230;2022-12-18T16:42:11;24.15;;;15.75;;